Time;durP1;ratioP1;P1;durP2;ratioP2;P2;SDS_P1;SDS_P2;PMS_P1;PMS_P2;Temp;Humidity;BMP_temperature;BMP_pressure;BME280_temperature;BME280_humidity;BME280_pressure;Samples;Min_cycle;Max_cycle;Signal;HPM_P1;HPM_P2
2024/01/31 00:01:24;;;;;;;37.42;15.88;;;;;;;-2.05;100.00;100623.16;4485218;31;20092;-75
2024/01/31 00:03:51;;;;;;;38.60;15.70;;;;;;;-2.10;100.00;100617.22;4485206;31;20105;-75
2024/01/31 00:06:18;;;;;;;41.75;17.30;;;;;;;-1.91;100.00;100619.66;4485215;31;20110;-75
2024/01/31 00:08:46;;;;;;;32.92;15.70;;;;;;;-1.94;100.00;100619.66;4485127;31;20100;-75
2024/01/31 00:11:14;;;;;;;34.85;15.60;;;;;;;-1.99;100.00;100617.97;4485130;31;20153;-75
2024/01/31 00:13:41;;;;;;;43.15;17.48;;;;;;;-2.18;100.00;100613.84;4485297;31;20096;-75
2024/01/31 00:16:09;;;;;;;42.78;17.90;;;;;;;-2.24;100.00;100616.47;4485105;31;20096;-75
2024/01/31 00:18:36;;;;;;;42.97;18.42;;;;;;;-2.25;100.00;100619.91;4489855;31;20453;-75
2024/01/31 00:21:04;;;;;;;41.28;17.08;;;;;;;-2.42;100.00;100617.44;4501111;31;20092;-75
2024/01/31 00:23:31;;;;;;;40.22;17.75;;;;;;;-2.39;100.00;100615.72;4500811;31;20160;-75
2024/01/31 00:25:59;;;;;;;39.05;17.17;;;;;;;-2.36;100.00;100618.25;4501096;31;20096;-75
2024/01/31 00:28:27;;;;;;;42.00;17.00;;;;;;;-2.39;100.00;100617.41;4500880;31;20079;-75
2024/01/31 00:30:54;;;;;;;42.72;18.30;;;;;;;-2.33;100.00;100617.41;4491426;31;20104;-75
2024/01/31 00:33:23;;;;;;;45.80;18.17;;;;;;;-2.25;100.00;100617.34;4485027;31;20164;-75
2024/01/31 00:35:50;;;;;;;38.10;16.35;;;;;;;-2.38;100.00;100625.09;4484937;31;20093;-75
2024/01/31 00:38:17;;;;;;;45.85;18.62;;;;;;;-2.41;100.00;100619.97;4485080;31;20141;-75
2024/01/31 00:40:45;;;;;;;42.83;17.48;;;;;;;-2.39;100.00;100617.41;4484993;31;20089;-75
2024/01/31 00:43:12;;;;;;;40.40;17.15;;;;;;;-2.43;100.00;100620.88;4485201;31;20101;-74
2024/01/31 00:45:39;;;;;;;38.80;16.90;;;;;;;-2.45;100.00;100625.16;4485011;31;20123;-74
2024/01/31 00:48:08;;;;;;;40.65;16.45;;;;;;;-2.47;100.00;100614.03;4483946;31;20093;-74
2024/01/31 00:50:35;;;;;;;39.50;16.48;;;;;;;-2.52;100.00;100617.50;4485326;31;20093;-75
2024/01/31 00:53:03;;;;;;;39.22;17.20;;;;;;;-2.59;100.00;100618.41;4485301;31;20136;-75
2024/01/31 00:55:30;;;;;;;42.25;18.05;;;;;;;-2.63;100.00;100618.44;4484905;31;20092;-75
2024/01/31 00:57:57;;;;;;;48.20;17.55;;;;;;;-2.61;100.00;100619.25;4485015;31;20080;-75
2024/01/31 01:00:26;;;;;;;41.05;17.05;;;;;;;-2.53;100.00;100614.94;4484972;31;20175;-75
2024/01/31 01:02:53;;;;;;;37.97;17.62;;;;;;;-2.58;100.00;100606.41;4484842;31;20100;-75
2024/01/31 01:05:20;;;;;;;41.72;17.40;;;;;;;-2.65;100.00;100609.87;4485012;31;20083;-75
2024/01/31 01:07:48;;;;;;;35.28;16.00;;;;;;;-2.76;100.00;100602.22;4484950;31;20115;-74
2024/01/31 01:10:15;;;;;;;37.90;15.00;;;;;;;-2.82;100.00;100608.25;4484817;31;20667;-75
2024/01/31 01:12:43;;;;;;;40.75;14.80;;;;;;;-2.73;100.00;100602.22;4484838;31;20096;-75
2024/01/31 01:15:11;;;;;;;46.00;16.67;;;;;;;-2.88;100.00;100600.56;4484936;31;20171;-75
2024/01/31 01:17:43;;;;;;;42.47;16.25;;;;;;;-3.05;100.00;100600.66;4484829;31;20137;-74
2024/01/31 01:20:11;;;;;;;42.47;16.87;;;;;;;-3.08;100.00;100600.66;4499911;31;20095;-75
2024/01/31 01:22:38;;;;;;;37.78;15.07;;;;;;;-3.29;100.00;100604.16;4500434;31;20118;-74
2024/01/31 01:25:06;;;;;;;37.13;16.92;;;;;;;-3.38;100.00;100594.78;4500481;31;20084;-75
2024/01/31 01:27:34;;;;;;;34.33;15.23;;;;;;;-3.42;100.00;100596.50;4500415;31;20095;-75
2024/01/31 01:30:03;;;;;;;35.92;14.75;;;;;;;-3.48;100.00;100591.41;4497142;31;21144;-75
2024/01/31 01:32:30;;;;;;;32.67;14.77;;;;;;;-3.52;100.00;100589.69;4484703;31;20115;-74
2024/01/31 01:34:57;;;;;;;33.20;15.00;;;;;;;-3.56;100.00;100587.97;4484507;31;20092;-74
2024/01/31 01:37:25;;;;;;;33.03;13.50;;;;;;;-3.54;100.00;100593.97;4484825;31;20111;-74
2024/01/31 01:39:52;;;;;;;34.70;15.65;;;;;;;-3.59;100.00;100585.44;4484610;31;20512;-74
2024/01/31 01:42:19;;;;;;;36.35;15.02;;;;;;;-3.67;100.00;100582.87;4484592;32;20096;-74
2024/01/31 01:44:47;;;;;;;35.35;13.90;;;;;;;-3.71;100.00;100582.87;4484489;31;20640;-74
2024/01/31 01:47:15;;;;;;;41.25;15.55;;;;;;;-3.71;100.00;100576.06;4484403;31;20084;-74
2024/01/31 01:49:44;;;;;;;32.88;14.45;;;;;;;-3.76;100.00;100580.34;4483462;32;20123;-74
2024/01/31 01:52:12;;;;;;;33.83;14.02;;;;;;;-3.82;100.00;100575.22;4484421;31;20549;-74
2024/01/31 01:54:40;;;;;;;35.38;14.93;;;;;;;-3.86;100.00;100579.50;4484411;31;20092;-74
2024/01/31 01:57:08;;;;;;;30.62;12.95;;;;;;;-3.75;100.00;100572.66;4484207;32;20104;-74
2024/01/31 01:59:36;;;;;;;32.70;14.43;;;;;;;-3.82;100.00;100572.66;4484204;31;20153;-74
2024/01/31 02:02:04;;;;;;;31.33;14.48;;;;;;;-3.82;100.00;100565.81;4484436;31;20171;-74
2024/01/31 02:04:32;;;;;;;34.03;13.15;;;;;;;-3.81;100.00;100561.56;4484348;32;20593;-74
2024/01/31 02:07:03;;;;;;;35.55;14.18;;;;;;;-3.83;100.00;100564.12;4484337;31;20081;-74
2024/01/31 02:09:31;;;;;;;34.53;14.63;;;;;;;-3.84;100.00;100562.44;4484249;31;20119;-74
2024/01/31 02:11:58;;;;;;;29.67;12.65;;;;;;;-3.93;100.00;100557.31;4484510;31;20119;-74
2024/01/31 02:14:26;;;;;;;29.33;12.98;;;;;;;-3.94;100.00;100558.16;4484146;31;20093;-74
2024/01/31 02:16:57;;;;;;;30.00;13.55;;;;;;;-3.87;100.00;100554.75;4484068;31;20153;-74
2024/01/31 02:19:25;;;;;;;31.58;12.85;;;;;;;-3.87;100.00;100549.63;4494348;31;20119;-74
2024/01/31 02:21:56;;;;;;;31.12;13.18;;;;;;;-3.89;100.00;100548.78;4499732;31;20151;-74
2024/01/31 02:24:24;;;;;;;31.77;13.00;;;;;;;-3.88;100.00;100550.47;4498621;31;20088;-74
2024/01/31 02:26:52;;;;;;;24.33;11.60;;;;;;;-3.91;100.00;100558.16;4499624;31;20093;-74
2024/01/31 02:29:19;;;;;;;28.35;12.10;;;;;;;-3.92;100.00;100544.50;4499811;31;20092;-74
2024/01/31 02:31:59;;;;;;;30.35;12.23;;;;;;;-3.96;100.00;100555.59;4484254;31;20089;-74
2024/01/31 02:34:27;;;;;;;37.15;12.05;;;;;;;-3.92;100.00;100544.50;4483798;32;20158;-74
2024/01/31 02:36:56;;;;;;;29.77;11.68;;;;;;;-3.84;100.00;100546.22;4484263;31;20101;-74
2024/01/31 02:39:24;;;;;;;32.55;12.88;;;;;;;-3.84;100.00;100539.38;4484044;32;20085;-74
2024/01/31 02:41:55;;;;;;;27.15;11.52;;;;;;;-3.81;100.00;100541.09;4483907;32;20453;-74
2024/01/31 02:44:22;;;;;;;32.80;12.30;;;;;;;-3.78;100.00;100538.53;4484087;32;20096;-74
2024/01/31 02:46:49;;;;;;;29.52;11.95;;;;;;;-3.69;100.00;100530.81;4482769;32;20077;-74
2024/01/31 02:49:16;;;;;;;30.50;12.02;;;;;;;-3.71;100.00;100534.22;4483831;31;20214;-74
2024/01/31 02:51:44;;;;;;;34.67;13.73;;;;;;;-3.56;100.00;100531.63;4483789;31;20088;-74
2024/01/31 02:54:11;;;;;;;27.35;11.50;;;;;;;-3.54;100.00;100523.94;4483635;31;20092;-74
2024/01/31 02:56:38;;;;;;;25.67;12.10;;;;;;;-3.53;100.00;100521.38;4483510;31;20100;-74
2024/01/31 02:59:05;;;;;;;23.42;11.15;;;;;;;-3.53;100.00;100531.59;4483611;31;20088;-74
2024/01/31 03:01:33;;;;;;;28.58;11.18;;;;;;;-3.54;100.00;100524.81;4483573;32;20096;-74
2024/01/31 03:04:00;;;;;;;28.87;10.90;;;;;;;-3.55;100.00;100523.09;4483562;32;20476;-74
2024/01/31 03:06:28;;;;;;;29.65;11.75;;;;;;;-3.49;100.00;100529.91;4483307;31;20097;-74
2024/01/31 03:08:55;;;;;;;25.73;10.55;;;;;;;-3.59;100.00;100523.94;4483515;31;20096;-74
2024/01/31 03:11:22;;;;;;;29.73;12.63;;;;;;;-3.62;100.00;100531.66;4484890;31;20096;-74
2024/01/31 03:13:50;;;;;;;27.65;11.73;;;;;;;-3.61;100.00;100536.75;4485604;31;20101;-74
2024/01/31 03:16:17;;;;;;;28.95;11.52;;;;;;;-3.64;100.00;100535.94;4485610;32;20076;-74
2024/01/31 03:18:46;;;;;;;29.98;12.18;;;;;;;-3.63;100.00;100532.53;4491392;31;20450;-74
2024/01/31 03:21:14;;;;;;;26.45;11.77;;;;;;;-3.56;100.00;100531.63;4501408;31;20131;-74
2024/01/31 03:23:43;;;;;;;26.52;11.10;;;;;;;-3.43;100.00;100535.84;4501293;31;20106;-74
2024/01/31 03:26:11;;;;;;;31.75;11.77;;;;;;;-3.36;100.00;100533.28;4501277;31;20096;-74
2024/01/31 03:28:39;;;;;;;24.00;11.48;;;;;;;-3.37;100.00;100532.44;4501272;31;20099;-74
2024/01/31 03:31:06;;;;;;;26.23;12.25;;;;;;;-3.35;100.00;100532.41;4490782;31;20162;-74
2024/01/31 03:33:35;;;;;;;27.23;11.27;;;;;;;-3.42;100.00;100529.88;4485500;31;20088;-74
2024/01/31 03:36:04;;;;;;;30.15;12.25;;;;;;;-3.35;100.00;100524.72;4485430;31;20100;-74
2024/01/31 03:38:32;;;;;;;26.12;11.75;;;;;;;-2.96;100.00;100520.28;4485483;31;20403;-74
2024/01/31 03:40:59;;;;;;;29.83;12.55;;;;;;;-2.83;100.00;100523.62;4485732;31;20123;-74
2024/01/31 03:43:27;;;;;;;31.17;12.07;;;;;;;-2.60;100.00;100518.34;4485447;31;20486;-74
2024/01/31 03:45:54;;;;;;;28.10;12.10;;;;;;;-2.74;100.00;100515.84;4485340;31;20526;-74
2024/01/31 03:48:21;;;;;;;29.48;11.90;;;;;;;-2.71;100.00;100523.53;4485180;31;20123;-74
2024/01/31 03:50:50;;;;;;;28.42;13.48;;;;;;;-2.76;100.00;100525.28;4485422;31;20122;-74
2024/01/31 03:53:18;;;;;;;32.15;13.35;;;;;;;-2.72;100.00;100520.12;4485232;31;20805;-74
2024/01/31 03:55:46;;;;;;;30.58;13.23;;;;;;;-2.70;100.00;100531.22;4485131;31;20143;-74
2024/01/31 03:58:13;;;;;;;28.20;12.00;;;;;;;-2.80;100.00;100524.47;4485267;31;20542;-74
2024/01/31 04:00:41;;;;;;;28.98;12.60;;;;;;;-2.84;100.00;100529.63;4485296;31;20590;-74
2024/01/31 04:03:09;;;;;;;32.47;12.85;;;;;;;-2.86;100.00;100533.03;4485557;31;20092;-74
2024/01/31 04:05:36;;;;;;;27.92;12.60;;;;;;;-2.92;100.00;100529.63;4485252;31;20152;-74
2024/01/31 04:08:09;;;;;;;33.33;13.55;;;;;;;-2.98;100.00;100530.53;4485253;31;20100;-74
2024/01/31 04:10:37;;;;;;;32.05;14.13;;;;;;;-3.11;100.00;100529.75;4485358;31;20394;-74
2024/01/31 04:13:04;;;;;;;29.85;13.57;;;;;;;-3.20;100.00;100529.78;4485068;31;20509;-74
2024/01/31 04:15:32;;;;;;;30.90;11.85;;;;;;;-3.14;100.00;100534.03;4485215;31;20451;-74
2024/01/31 04:18:03;;;;;;;31.58;11.80;;;;;;;-3.19;100.00;100540.88;4486019;31;20176;-74
2024/01/31 04:20:30;;;;;;;31.30;12.43;;;;;;;-3.28;100.00;100541.78;4500941;31;20100;-74
2024/01/31 04:22:58;;;;;;;28.45;13.57;;;;;;;-3.36;100.00;100536.69;4499734;31;20163;-74
2024/01/31 04:25:26;;;;;;;33.67;13.82;;;;;;;-3.49;100.00;100543.56;4500822;31;20485;-74
2024/01/31 04:27:53;;;;;;;29.12;13.57;;;;;;;-3.60;100.00;100543.59;4500705;31;20115;-74
2024/01/31 04:30:20;;;;;;;31.10;13.70;;;;;;;-3.50;100.00;100543.56;4495434;31;20104;-74
2024/01/31 04:32:47;;;;;;;37.63;14.00;;;;;;;-3.56;100.00;100539.31;4485099;31;20124;-74
2024/01/31 04:35:15;;;;;;;36.10;13.93;;;;;;;-3.68;100.00;100539.34;4485026;31;20080;-74
2024/01/31 04:37:42;;;;;;;36.63;14.82;;;;;;;-3.72;100.00;100543.62;4485140;31;20100;-74
2024/01/31 04:40:10;;;;;;;33.13;13.55;;;;;;;-3.78;100.00;100535.97;4485026;31;20096;-74
2024/01/31 04:42:38;;;;;;;31.62;14.18;;;;;;;-3.90;100.00;100530.88;4485090;31;20112;-74
2024/01/31 04:45:06;;;;;;;28.92;13.18;;;;;;;-3.97;100.00;100540.25;4485129;32;20119;-74
2024/01/31 04:47:37;;;;;;;34.47;14.38;;;;;;;-3.96;100.00;100541.97;4485053;31;20114;-74
2024/01/31 04:50:05;;;;;;;33.97;14.65;;;;;;;-3.96;100.00;100536.84;4485096;32;20118;-74
2024/01/31 04:52:33;;;;;;;33.17;15.00;;;;;;;-3.95;100.00;100541.97;4485047;31;20121;-74
2024/01/31 04:55:00;;;;;;;32.40;13.25;;;;;;;-3.91;100.00;100532.56;4484795;31;20096;-74
2024/01/31 04:57:28;;;;;;;30.48;13.13;;;;;;;-3.95;100.00;100526.59;4484829;31;20447;-74
2024/01/31 04:59:55;;;;;;;37.33;14.50;;;;;;;-4.04;100.00;100528.31;4484827;31;20120;-74
2024/01/31 05:02:24;;;;;;;29.33;12.70;;;;;;;-4.07;100.00;100530.88;4485127;31;20114;-73
2024/01/31 05:04:51;;;;;;;31.48;12.93;;;;;;;-4.06;100.00;100535.97;4500168;31;20099;-75
2024/01/31 05:07:19;;;;;;;31.58;13.43;;;;;;;-4.17;100.00;100528.31;4500766;31;20092;-75
2024/01/31 05:09:46;;;;;;;30.02;13.98;;;;;;;-4.13;100.00;100530.03;4500716;31;20084;-75
2024/01/31 05:12:14;;;;;;;38.92;14.45;;;;;;;-4.21;100.00;100526.62;4500664;31;20593;-75
2024/01/31 05:14:41;;;;;;;30.60;13.68;;;;;;;-4.37;100.00;100535.16;4500543;31;20084;-75
2024/01/31 05:17:10;;;;;;;38.42;15.20;;;;;;;-4.34;100.00;100536.00;4500648;31;20471;-74
2024/01/31 05:19:37;;;;;;;38.08;14.27;;;;;;;-4.26;100.00;100532.59;4500169;31;20112;-74
2024/01/31 05:22:04;;;;;;;31.67;13.23;;;;;;;-4.20;100.00;100536.00;4498689;31;21335;-74
2024/01/31 05:24:31;;;;;;;32.33;13.20;;;;;;;-4.19;100.00;100536.88;4500720;31;20404;-74
2024/01/31 05:27:03;;;;;;;36.45;16.00;;;;;;;-4.31;100.00;100533.44;4499777;31;20119;-75
2024/01/31 05:29:30;;;;;;;33.30;14.87;;;;;;;-4.18;100.00;100539.44;4499414;31;20118;-75
2024/01/31 05:31:59;;;;;;;30.62;13.62;;;;;;;-4.13;100.00;100532.59;4500328;31;20117;-74
2024/01/31 05:34:27;;;;;;;30.50;14.48;;;;;;;-4.10;100.00;100532.59;4497601;31;20131;-74
2024/01/31 05:36:55;;;;;;;40.15;14.68;;;;;;;-4.11;100.00;100536.00;4499751;31;20430;-74
2024/01/31 05:39:22;;;;;;;33.67;13.60;;;;;;;-4.17;100.00;100538.56;4499211;31;20115;-75
2024/01/31 05:41:51;;;;;;;37.80;16.05;;;;;;;-4.19;100.00;100530.03;4500266;31;20117;-74
2024/01/31 05:44:18;;;;;;;49.30;19.52;;;;;;;-4.11;100.00;100525.75;4500618;31;20088;-74
2024/01/31 05:46:45;;;;;;;51.30;20.75;;;;;;;-4.07;100.00;100533.44;4498733;31;20112;-74
2024/01/31 05:49:13;;;;;;;44.45;19.15;;;;;;;-4.06;100.00;100535.16;4498279;31;20644;-74
2024/01/31 05:51:40;;;;;;;41.40;17.77;;;;;;;-4.06;100.00;100532.59;4498357;31;20091;-74
2024/01/31 05:54:08;;;;;;;51.17;19.65;;;;;;;-4.08;100.00;100530.03;4499790;31;20494;-74
2024/01/31 05:56:37;;;;;;;43.38;17.05;;;;;;;-4.28;100.00;100530.88;4500236;31;20096;-74
2024/01/31 05:59:04;;;;;;;45.78;18.40;;;;;;;-4.18;100.00;100524.06;4500077;31;20149;-74
2024/01/31 06:01:31;;;;;;;48.10;19.15;;;;;;;-4.19;100.00;100522.38;4490642;31;20161;-74
2024/01/31 06:03:58;;;;;;;54.83;18.85;;;;;;;-4.20;100.00;100522.38;4496412;31;20092;-75
2024/01/31 06:06:26;;;;;;;49.65;19.10;;;;;;;-4.16;100.00;100517.25;4492637;31;20164;-75
2024/01/31 06:08:53;;;;;;;51.83;18.62;;;;;;;-4.20;100.00;100524.91;4495144;31;20096;-75
2024/01/31 06:11:20;;;;;;;42.40;18.95;;;;;;;-4.30;100.00;100524.06;4492213;31;20158;-75
2024/01/31 06:13:47;;;;;;;41.15;18.05;;;;;;;-4.25;100.00;100518.94;4490843;31;20103;-74
2024/01/31 06:16:14;;;;;;;55.60;17.05;;;;;;;-4.14;100.00;100518.06;4490445;31;20119;-74
2024/01/31 06:18:42;;;;;;;44.78;17.05;;;;;;;-4.18;100.00;100525.75;4491172;31;20126;-74
2024/01/31 06:21:10;;;;;;;43.63;17.23;;;;;;;-4.34;100.00;100525.78;4485620;31;20553;-74
2024/01/31 06:23:37;;;;;;;52.50;17.27;;;;;;;-4.25;100.00;100524.06;4483757;31;20085;-73
2024/01/31 06:26:04;;;;;;;48.58;17.25;;;;;;;-4.29;100.00;100528.31;4497244;31;20180;-75
2024/01/31 06:28:31;;;;;;;43.38;17.17;;;;;;;-4.39;100.00;100526.62;4499459;31;20503;-74
2024/01/31 06:30:59;;;;;;;39.95;16.10;;;;;;;-4.26;100.00;100537.72;4496167;31;20824;-75
2024/01/31 06:33:31;;;;;;;48.90;17.83;;;;;;;-4.20;100.00;100533.44;4486707;31;20797;-74
2024/01/31 06:36:01;;;;;;;39.95;16.23;;;;;;;-4.14;100.00;100538.56;4493487;31;20107;-75
2024/01/31 06:38:28;;;;;;;49.53;18.00;;;;;;;-4.04;100.00;100538.53;4494234;31;20104;-75
2024/01/31 06:40:58;;;;;;;49.53;17.10;;;;;;;-4.06;100.00;100540.25;4489144;31;20629;-75
2024/01/31 06:43:25;;;;;;;56.92;18.70;;;;;;;-3.99;100.00;100537.69;4491375;31;20080;-75
2024/01/31 06:45:53;;;;;;;54.15;18.52;;;;;;;-3.89;100.00;100541.09;4491631;31;20130;-75
2024/01/31 06:48:22;;;;;;;46.55;17.60;;;;;;;-3.70;100.00;100543.62;4494041;31;20096;-75
2024/01/31 06:50:50;;;;;;;49.25;19.42;;;;;;;-3.53;100.00;100541.84;4492376;31;20099;-75
2024/01/31 06:53:18;;;;;;;106.20;20.73;;;;;;;-3.41;100.00;100539.28;4493432;31;20556;-75
2024/01/31 06:55:48;;;;;;;75.55;22.33;;;;;;;-3.31;100.00;100537.53;4491617;31;20516;-74
2024/01/31 06:58:17;;;;;;;71.47;20.35;;;;;;;-3.16;100.00;100533.19;4489984;31;20525;-74
2024/01/31 07:00:44;;;;;;;84.07;20.17;;;;;;;-3.01;100.00;100537.38;4490542;31;20095;-75
2024/01/31 07:03:11;;;;;;;50.85;19.73;;;;;;;-2.93;100.00;100539.06;4489627;31;20176;-74
2024/01/31 07:05:39;;;;;;;76.18;22.33;;;;;;;-2.81;100.00;100533.00;4492600;31;20126;-74
2024/01/31 07:08:06;;;;;;;59.78;20.95;;;;;;;-2.57;100.00;100538.84;4489890;31;20108;-74
2024/01/31 07:10:36;;;;;;;60.33;20.10;;;;;;;-2.44;100.00;100537.88;4490410;31;20099;-74
2024/01/31 07:13:03;;;;;;;50.58;18.70;;;;;;;-2.31;100.00;100533.53;4483626;31;20103;-73
2024/01/31 07:15:32;;;;;;;48.45;17.55;;;;;;;-2.10;100.00;100537.63;4491316;31;20154;-73
2024/01/31 07:17:59;;;;;;;46.25;18.02;;;;;;;-1.84;100.00;100539.09;4486815;31;20167;-73
2024/01/31 07:20:27;;;;;;;48.13;20.10;;;;;;;-1.59;100.00;100543.97;4485648;31;20104;-74
2024/01/31 07:22:55;;;;;;;43.65;17.42;;;;;;;-1.41;100.00;100542.94;4490606;31;20381;-72
2024/01/31 07:25:22;;;;;;;49.08;19.23;;;;;;;-1.30;100.00;100546.25;4492139;31;20092;-74
2024/01/31 07:27:50;;;;;;;80.03;22.52;;;;;;;-1.13;100.00;100543.47;4493863;31;20171;-72
2024/01/31 07:30:18;;;;;;;49.88;17.83;;;;;;;-0.88;100.00;100548.28;4492656;31;20477;-72
2024/01/31 07:32:48;;;;;;;44.13;18.27;;;;;;;-0.75;100.00;100554.97;4493213;31;20092;-73
2024/01/31 07:35:15;;;;;;;46.30;18.73;;;;;;;-0.62;100.00;100561.63;4492346;31;20108;-72
2024/01/31 07:37:43;;;;;;;37.58;16.25;;;;;;;-0.32;100.00;100559.47;4493455;31;20100;-72
2024/01/31 07:40:20;;;;;;;39.53;16.85;;;;;;;-0.05;100.00;100557.31;4495419;31;20180;-72
2024/01/31 07:42:48;;;;;;;35.63;16.08;;;;;;;0.26;100.00;100556.78;4492925;31;20100;-72
2024/01/31 07:45:15;;;;;;;31.40;14.90;;;;;;;0.41;100.00;100556.53;4491680;31;20157;-73
2024/01/31 07:47:43;;;;;;;38.63;16.00;;;;;;;0.63;100.00;100562.09;4493253;31;20099;-72
2024/01/31 07:50:11;;;;;;;35.10;15.77;;;;;;;0.76;100.00;100567.88;4492791;31;20111;-72
2024/01/31 07:52:38;;;;;;;37.03;15.98;;;;;;;0.83;100.00;100569.47;4491670;31;20218;-73
2024/01/31 07:55:08;;;;;;;34.90;14.70;;;;;;;1.00;100.00;100563.97;4492841;31;20099;-73
2024/01/31 07:57:35;;;;;;;34.42;14.82;;;;;;;1.06;100.00;100565.56;4492236;31;20107;-73
2024/01/31 08:00:06;;;;;;;29.17;12.88;;;;;;;1.45;100.00;100559.56;4493191;31;20104;-73
2024/01/31 08:02:40;;;;;;;36.17;14.48;;;;;;;1.51;100.00;100562.00;4495050;31;20108;-73
2024/01/31 08:05:07;;;;;;;26.58;13.75;;;;;;;1.77;100.00;100558.78;4491028;31;20130;-73
2024/01/31 08:07:35;;;;;;;25.92;11.38;;;;;;;2.02;100.00;100556.44;4491590;31;20481;-73
2024/01/31 08:10:09;;;;;;;25.92;11.93;;;;;;;2.13;100.00;100561.34;4495413;31;20092;-73
2024/01/31 08:12:42;;;;;;;26.30;11.90;;;;;;;2.22;100.00;100563.69;4492823;31;20115;-73
2024/01/31 08:15:09;;;;;;;26.65;12.63;;;;;;;2.37;100.00;100561.59;4491495;31;20115;-73
2024/01/31 08:17:37;;;;;;;21.85;9.95;;;;;;;2.52;100.00;100566.37;4494619;31;20116;-72
2024/01/31 08:20:06;;;;;;;22.52;10.90;;;;;;;2.59;100.00;100560.16;4494408;31;20141;-71
2024/01/31 08:22:33;;;;;;;23.73;10.48;;;;;;;2.52;100.00;100561.19;4483585;32;20122;-72
2024/01/31 08:25:06;;;;;;;23.50;10.13;;;;;;;2.75;100.00;100555.37;4494575;31;20089;-72
2024/01/31 08:27:34;;;;;;;25.58;11.57;;;;;;;2.76;100.00;100556.25;4498789;31;20182;-73
2024/01/31 08:30:03;;;;;;;26.00;11.98;;;;;;;2.79;100.00;100561.34;4488039;31;20161;-73
2024/01/31 08:32:47;;;;;;;19.60;9.48;;;;;;;2.95;100.00;100551.38;4491793;31;20110;-72
2024/01/31 08:35:14;;;;;;;25.70;11.68;;;;;;;2.99;100.00;100559.00;4494438;31;20104;-73
2024/01/31 08:37:42;;;;;;;23.42;10.38;;;;;;;3.16;100.00;100548.16;4483315;31;20935;-72
2024/01/31 08:40:10;;;;;;;23.00;10.93;;;;;;;3.30;100.00;100545.16;4490104;31;20108;-73
2024/01/31 08:42:40;;;;;;;23.52;10.00;;;;;;;3.43;100.00;100545.63;4494558;31;20110;-73
2024/01/31 08:45:11;;;;;;;19.52;9.88;;;;;;;3.59;100.00;100543.41;4493961;31;20487;-72
2024/01/31 08:47:40;;;;;;;22.67;10.35;;;;;;;3.60;100.00;100539.88;4497590;31;20115;-71
2024/01/31 08:50:09;;;;;;;22.95;9.45;;;;;;;3.59;100.00;100543.41;4493002;31;20166;-72
2024/01/31 08:52:37;;;;;;;18.30;9.95;;;;;;;3.58;100.00;100546.88;4491634;31;20183;-73
2024/01/31 08:55:05;;;;;;;23.98;10.70;;;;;;;3.73;100.00;100541.19;4493474;31;20580;-72
2024/01/31 08:57:33;;;;;;;20.70;10.52;;;;;;;3.73;100.00;100541.19;4490372;31;20477;-73
2024/01/31 09:00:04;;;;;;;21.75;10.63;;;;;;;3.61;100.00;100541.59;4497485;31;20088;-72
2024/01/31 09:02:36;;;;;;;21.85;10.75;;;;;;;3.68;100.00;100543.09;4487875;31;20545;-73
2024/01/31 09:05:04;;;;;;;25.90;10.90;;;;;;;3.76;100.00;100542.00;4491761;31;20104;-72
2024/01/31 09:07:33;;;;;;;23.48;10.68;;;;;;;3.57;100.00;100532.22;4496100;31;20087;-72
2024/01/31 09:10:00;;;;;;;19.67;9.95;;;;;;;3.73;100.00;100535.19;4492250;31;20166;-73
2024/01/31 09:12:33;;;;;;;23.15;9.48;;;;;;;3.65;100.00;100535.44;4488239;31;21145;-75
2024/01/31 09:15:01;;;;;;;18.27;9.35;;;;;;;3.67;100.00;100533.62;4489571;31;20700;-74
2024/01/31 09:17:28;;;;;;;23.75;10.55;;;;;;;3.56;100.00;100538.31;4499996;31;20100;-75
2024/01/31 09:19:56;;;;;;;21.33;10.32;;;;;;;3.77;100.00;100544.56;4490515;31;20148;-73
2024/01/31 09:22:24;;;;;;;19.62;10.90;;;;;;;3.59;100.00;100543.41;4489613;31;20104;-74
2024/01/31 09:24:52;;;;;;;24.67;12.25;;;;;;;3.57;100.00;100539.16;4490894;31;20446;-77
2024/01/31 09:27:20;;;;;;;16.70;8.70;;;;;;;3.71;100.00;100545.59;4492109;31;20087;-73
2024/01/31 09:29:47;;;;;;;19.70;10.32;;;;;;;3.56;100.00;100553.88;4493788;31;20532;-75
2024/01/31 09:32:15;;;;;;;27.87;11.90;;;;;;;3.56;100.00;100546.09;4494068;31;20118;-74
2024/01/31 09:34:45;;;;;;;24.45;11.70;;;;;;;3.60;100.00;100537.31;4492311;31;20187;-74
2024/01/31 09:37:13;;;;;;;23.20;12.10;;;;;;;3.74;100.00;100539.47;4491429;31;20087;-74
2024/01/31 09:39:42;;;;;;;25.85;11.80;;;;;;;3.44;100.00;100538.72;4490674;31;20112;-75
2024/01/31 09:42:10;;;;;;;27.90;12.93;;;;;;;3.47;100.00;100538.59;4491708;31;20072;-75
2024/01/31 09:44:38;;;;;;;25.00;11.98;;;;;;;3.59;100.00;100529.56;4492169;31;20135;-75
2024/01/31 09:47:06;;;;;;;29.48;14.20;;;;;;;3.58;100.00;100528.75;4489571;31;20156;-75
2024/01/31 09:49:35;;;;;;;25.75;11.63;;;;;;;3.54;100.00;100521.94;4475877;31;20088;-75
2024/01/31 09:52:03;;;;;;;26.23;12.02;;;;;;;3.67;100.00;100528.44;4491321;31;20410;-75
2024/01/31 09:54:31;;;;;;;26.27;11.85;;;;;;;3.77;100.00;100522.94;4489522;31;20127;-79
2024/01/31 09:56:59;;;;;;;30.62;13.05;;;;;;;3.84;100.00;100514.09;4491903;31;20121;-80
2024/01/31 09:59:26;;;;;;;27.85;13.00;;;;;;;3.84;100.00;100512.31;4486765;31;20084;-81
2024/01/31 10:01:54;;;;;;;24.85;11.70;;;;;;;3.84;100.00;100516.69;4488809;31;20115;-77
2024/01/31 10:04:22;;;;;;;24.65;11.75;;;;;;;4.00;100.00;100509.25;4492889;31;20103;-77
2024/01/31 10:07:02;;;;;;;25.58;11.85;;;;;;;4.09;100.00;100507.16;4496922;31;20084;-77
2024/01/31 10:09:30;;;;;;;22.45;10.95;;;;;;;4.21;100.00;100512.81;4489140;31;20096;-79
2024/01/31 10:11:58;;;;;;;25.23;12.40;;;;;;;4.15;100.00;100503.53;4499262;31;20152;-77
2024/01/31 10:14:26;;;;;;;28.62;12.57;;;;;;;4.21;100.00;100502.44;4490866;31;20127;-78
2024/01/31 10:16:55;;;;;;;28.60;12.35;;;;;;;4.29;100.00;100497.84;4491437;31;20147;-77
2024/01/31 10:19:23;;;;;;;26.17;12.95;;;;;;;4.09;100.00;100499.38;4494368;31;20099;-78
2024/01/31 10:21:51;;;;;;;25.50;11.57;;;;;;;4.08;100.00;100500.28;4498923;31;20137;-76
2024/01/31 10:24:18;;;;;;;23.75;11.90;;;;;;;4.28;100.00;100496.12;4489368;31;20100;-76
2024/01/31 10:26:47;;;;;;;20.73;10.88;;;;;;;4.36;100.00;100504.50;4489416;31;20454;-76
2024/01/31 10:29:14;;;;;;;24.63;11.38;;;;;;;4.29;100.00;100495.25;4494638;31;20096;-76
2024/01/31 10:31:43;;;;;;;22.80;11.45;;;;;;;4.34;100.00;100495.09;4491899;31;20100;-75
2024/01/31 10:34:11;;;;;;;23.60;11.45;;;;;;;4.43;100.00;100487.81;4491759;31;20089;-77
2024/01/31 10:36:40;;;;;;;27.37;12.02;;;;;;;4.66;100.00;100496.50;4489833;31;20134;-78
2024/01/31 10:39:11;;;;;;;24.33;11.30;;;;;;;4.65;100.00;100481.84;4492193;31;20233;-76
2024/01/31 10:41:42;;;;;;;23.62;12.32;;;;;;;4.76;100.00;100481.44;4488898;31;20141;-79
2024/01/31 10:44:14;;;;;;;28.25;12.30;;;;;;;4.83;100.00;100476.84;4494265;31;20205;-76
2024/01/31 10:46:45;;;;;;;20.10;11.27;;;;;;;4.75;95.27;100474.53;4492682;31;20449;-75
2024/01/31 10:49:16;;;;;;;23.92;11.88;;;;;;;4.68;100.00;100471.34;4486216;31;20571;-75
2024/01/31 10:51:53;;;;;;;22.52;12.43;;;;;;;4.83;100.00;100461.28;4484850;31;20084;-75
2024/01/31 10:54:25;;;;;;;25.23;12.20;;;;;;;4.98;100.00;100465.88;4489464;31;20112;-75
2024/01/31 10:56:54;;;;;;;24.12;11.90;;;;;;;4.99;100.00;100462.38;4490050;31;20112;-75
2024/01/31 10:59:22;;;;;;;20.95;11.50;;;;;;;5.04;96.75;100444.88;4489337;31;20389;-76
2024/01/31 11:01:58;;;;;;;19.77;11.18;;;;;;;4.90;96.46;100454.94;4493242;31;20554;-75
2024/01/31 11:04:27;;;;;;;23.50;11.68;;;;;;;4.87;97.17;100448.09;4486173;31;20123;-74
2024/01/31 11:06:59;;;;;;;22.67;11.10;;;;;;;4.72;96.66;100452.12;4488172;31;20108;-76
2024/01/31 11:09:28;;;;;;;23.97;12.47;;;;;;;4.52;97.03;100452.06;4489553;31;20092;-75